Ergebnisliste vom: 31.12.2017 - Oberlichtenauer Silvesterlauf2017 - 5 km

weitere Ergebnisse >>

Platz Pl.m Pl.w Stnr. Name,Vorname Verein GJ Ak AKm AKw Endzeit RŁckst.
1 1   477 Rink, Marc Trivolution Action Crew 92 M20-64 1   0:16:07 0:00:00
2 2   148 Wagner, Roman Citylauf-Verein Dresden 79 M20-64 2   0:16:08 0:00:01
3 3   194 Marquedant, Dominic LT Rheinhessen-Pfalz 87 M20-64 3   0:16:45 0:00:38
4 4   226 Konietzky, Franz TV Wattenscheid 01 88 M20-64 4   0:16:50 0:00:43
4 4   408 Ueberfuhr, Marc OSIV Bautzen 95 M20-64 4   0:16:50 0:00:43
6 6   223 Ziegler, Fabian TSV Zirndorf 99 mU18/20 1   0:18:55 0:02:48
7 7   462 Schuster, Camillo Sportfreunde Schuster 73 M20-64 6   0:19:04 0:02:57
8 8   216 Schiffke, Peter SSV Neustadt/Sachsen 98 mU18/20 2   0:19:17 0:03:10
9 9   213 Gyulai, Lennox SG Lok Hainsberg 8 mU10 1   0:19:58 0:03:51
10 10   308 Mager, Sebastian K√∂nigsbr√ľck 87 M20-64 7   0:20:01 0:03:54
11 11   142 Jurowiec, Julius Citylauf-Verein Dresden 2 mU16 1   0:20:28 0:04:21
12   1 402 Gran, Marieluise Halden SK 2 wU16   1 0:20:34 0:04:27
13 12   173 Reichel, Moritz Hohenleipisch 6 mU16 2   0:20:46 0:04:39
14 13   170 H√∂nisch, Marcel H&H Racing Kroppen 87 M20-64 8   0:20:51 0:04:44
15 14   166 Murrer, Christian Glash√ľtten/Taunus 78 M20-64 9   0:21:05 0:04:58
16 15   168 Gomolla, Merlin G√∂rlitz 6 mU16 3   0:21:08 0:05:01
17 16   219 Pluder, Alex SV Gr√ľn Wei√ü Elstra 97 M20-64 10   0:21:09 0:05:02
18   2 190 Eisold, Jasmin LG Friedersdorf   wU18/20   1 0:21:10 0:05:03
18 17   307 Wehner, Stefan Reichenbach 87 M20-64 11   0:21:10 0:05:03
20 18   309 Buhrig, Sven SV Gr√ľn-Wei√ü Elstra 75 M20-64 12   0:21:28 0:05:21
21   3 496 Haupt, Angela LSV Pirna 69 W20-64   1 0:21:40 0:05:33
22 19   369 Golzow, Jenns Greifswald 76 M20-64 13   0:21:51 0:05:44
23 20   167 Gomolla, Benito G√∂rlitz 6 mU16 4   0:22:07 0:06:00
24   4 326 Rickers, Marita Sportfreunde Ottendorf-Okrilla 58 W20-64   2 0:22:18 0:06:11
25 21   375 G√§rtner, Matthias   71 M20-64 14   0:22:19 0:06:12
26 22   453 Ruppert, Florian SG Wiesa 5 mU16 5   0:22:28 0:06:21
27   5 222 Garten, Virginie Triathlonverein Dresden 80 W20-64   3 0:22:40 0:06:33
28   6 374 Sch√§fer, Katrin G√∂rlitz 66 W20-64   4 0:22:47 0:06:40
29 23   370 Lauke, Frank Sohland 67 M20-64 15   0:22:49 0:06:42
30   7 202 Mohr, Cornelia OSSV Kamenz 75 W20-64   5 0:23:13 0:07:06
31 24   212 Bulang, Daniel Sch√∂nwetter Trainingsgruppe 82 M20-64 16   0:23:32 0:07:25
32 25   187 Gr√§fe, Klaus LG Deutschbaselitz 56 M20-64 17   0:23:36 0:07:29
33   8 482 Kadner, Ines Bretnig 82 W20-64   6 0:23:38 0:07:31
34   9 182 Stache, Diana Lampertswalde OT Sch√∂nborn 80 W20-64   7 0:23:44 0:07:37
35 26   312 Luft, Michael K√∂nigswarther SV 66 M20-64 18   0:23:50 0:07:43
36 27   151 Schmidt, Torsten Doberlug-Kirchhain 73 M20-64 19   0:23:52 0:07:45
37 28   350 Angermann, Jens RC 1898 Radeberg 63 M20-64 20   0:24:06 0:07:59
38 29   425 Korch, Florian TSV Pulsnitz 4 mU16 6   0:24:09 0:08:02
39 30   481 Kadner, Martin Bretnig 82 M20-64 21   0:24:26 0:08:19
40 31   186 Eberlein, Holm Lau√ünitz 71 M20-64 22   0:24:29 0:08:22
41 32   364 Graupner, Leon Oberlichtenau 2 mU16 7   0:24:35 0:08:28
42   10 499 Wehner, Karin OSSV Kamenz 61 W20-64   8 0:24:36 0:08:29
43 33   300 Hentschke, Wolfgang SBB 57 M20-64 23   0:24:39 0:08:32
44 34   164 Menzel, Jan Friedersdorf 87 M20-64 24   0:24:46 0:08:39
45 35   193 R√∂hr, Egbert LSV Pirna 49 M65 1   0:24:48 0:08:41
46   11 454 Ruppert, Kerstin SG Wiesa 74 W20-64   9 0:24:49 0:08:42
47 36   412 Ziesche, Torsten Schlamml√§ufer K√∂nigsbr√ľck 78 M20-64 25   0:24:50 0:08:43
48 37   188 Gr√§fe, Sebastian LG Deutschbaselitz 80 M20-64 26   0:24:55 0:08:48
49   12 204 Donath, Vanessa Polenz   wU18/20   2 0:25:00 0:08:53
50 38   180 Voigt, Niklas HSV Pulsnitz 3 mU16 8   0:25:10 0:09:03
51 39   491 Hubald, Christian Wilten 69 M20-64 27   0:25:15 0:09:08
52 40   313 Dutschmann, Andre Ottendorf Okrilla 70 M20-64 28   0:25:17 0:09:10
53   13 197 Schiffke, Ines Neustadt/Sachsen 74 W20-64   10 0:25:34 0:09:27
54   14 479 Kurze, Sandy Bretnig 76 W20-64   11 0:25:36 0:09:29
55   15 214 Reppe, Sylvia SG Oberlichtenau 75 W20-64   12 0:25:39 0:09:32
56   16 356 Heinrich, Anita ausdauer-training-dresden 82 W20-64   13 0:25:42 0:09:35
57   17 483 Matthiesen, liz Dresden 90 W20-64   14 0:25:43 0:09:36
58 41   171 Sch√§fer, Markus Halbau 80 M20-64 29   0:25:59 0:09:52
59 42   327 Riokers, Holger Sportfreunde Ottendorf-Okrilla 58 M20-64 30   0:26:13 0:10:06
60   18 175 Reppe, Lisa HSV 1923 Pulsnitz 98 wU18/20   3 0:26:15 0:10:08
61 43   339 Reimer, Willy SG Nickelh√ľtte Aue 3 mU16 9   0:26:18 0:10:11
62 44   172 Kommolk, Gerd HBSK Dresden 62 M20-64 31   0:26:19 0:10:12
63   19 439 Vetter, Yvette Pulsnitz 78 W20-64   15 0:26:20 0:10:13
64   20 443 Koitsch, Vicki SG Oberlichtenau 78 W20-64   16 0:26:21 0:10:14
65 45   209 Speer, Dieter RC 1898 Radeberg 42 M75 1   0:26:24 0:10:17
66   21 358 Preu√ü, Sandra Windspektrum 76 W20-64   17 0:26:26 0:10:19
67 46   420 Sch√§fer, Gerd Oberlichtenau 63 M20-64 32   0:26:27 0:10:20
68 47   469 Bernhagen, Marvin HSV Pulsnitz 3 mU16 10   0:26:28 0:10:21
69 48   363 Br√∂mkonz, Vonzack Oberlichtenau 2 mU16 11   0:26:32 0:10:25
70   22 160 Pollack, Maria Familie Pollack Bischheim 5 wU16   2 0:26:33 0:10:26
71 49   357 Schubert, Sven Sch√∂nteichen 78 M20-64 33   0:26:34 0:10:27
72 50   161 Pollack, Mike Familie Pollack Bischheim 75 M20-64 34   0:26:35 0:10:28
73   23 480 Sarink, Grit Die Senftenberger Laufgemeinschaft 70 W20-64   18 0:26:40 0:10:33
74   24 198 Michel, Yvonne Oberlichtenau 79 W20-64   19 0:26:41 0:10:34
75   25 152 Erdmann, Nadine Dresden 86 W20-64   20 0:26:43 0:10:36
76 51   218 Beer, Thomas SV Goldbach 56 M20-64 35   0:26:52 0:10:45
77   26 174 Musch, Alexandra HSV 1923 Pulsnitz 71 W20-64   21 0:26:59 0:10:52
78   27 316 Binner, Anita Mei√üen 67 W20-64   22 0:27:00 0:10:53
79 52   179 P√∂hland, Konrad HSV 1923 Pulsnitz 7 mU16 12   0:27:04 0:10:57
80 53   211 Klawun Kendray, Werner George Sachsen-Marathon 42 M75 2   0:27:10 0:11:03
81   28 224 Tralles, Carmen TV 1848 Bischofswerda 64 W20-64   23 0:27:13 0:11:06
82   29 413 Frommberger, Anke SG Oberlichtenau 70 W20-64   24 0:27:20 0:11:13
83   30 460 Schuster, Michaela Sportfreunde Schuster 83 W20-64   25 0:27:24 0:11:17
84 54   478 Sch√ľtze, Wolfgang Skiklub Dresden Niedersedlitz 42 M75 3   0:27:27 0:11:20
85 55   145 Stevens, Dietmar Bretnig-Hauswalde 55 M20-64 36   0:27:31 0:11:24
86 56   157 Huke, Karl-Heinz ESV Lok Bad Schandau 45 M70 1   0:27:37 0:11:30
87   31 153 Felber, Jana Dresden 81 W20-64   26 0:27:40 0:11:33
88   32 147 Palfi, Edelgard Citylauf-Verein Dresden 52 W65   1 0:27:42 0:11:35
89 57   455 Wustmann, Dirk St√ľrza 77 M20-64 37   0:27:45 0:11:38
90   33 207 Beier, Kati Pulsschlag Neuhausen 78 W20-64   27 0:27:58 0:11:51
91   34 314 Dutschmann, Antje Medingen 75 W20-64   28 0:28:08 0:12:01
92   35 159 Pollack, Hanna Familie Pollack Bischheim 3 wU16   3 0:28:16 0:12:09
93   36 461 Linke, Maike Sportfreunde Linke 78 W20-64   29 0:28:19 0:12:12
94 58   205 Lau, Christian Pulsnitz 52 M65 2   0:28:20 0:12:13
95   37 181 Hohlfeld, Ramona Kamenz 73 W20-64   30 0:28:21 0:12:14
96   38 311 Luft, Simone K√∂nigswarther SV 66 W20-64   31 0:28:33 0:12:26
97   39 191 Wolf, Denise LG Priestewitz 79 W20-64   32 0:28:34 0:12:27
98   40 325 Eisenrauch, Kathrin   65 W20-64   33 0:28:40 0:12:33
99 59   177 Kunath, Matthias HSV 1923 Pulsnitz - LA 62 M20-64 38   0:28:49 0:12:42
100 60   210 List, Hans-Joachim Ruhland 49 M65 3   0:28:53 0:12:46
101   41 227 Simchen, Alexandra VDD Lugau 66 W20-64   34 0:28:54 0:12:47
102   42 206 Werner, Christin Pulsnitz 66 W20-64   35 0:29:11 0:13:04
103   43 492 Hubold, Kathrin Wilten 67 W20-64   36 0:29:12 0:13:05
104   44 302 Watollik, Gabi OSSV Kamenz 64 W20-64   37 0:29:31 0:13:24
105   45 162 Glausch, Celine Friedersdorf 99 wU18/20   4 0:29:34 0:13:27
106   46 144 Lau, Annika Braunschweig 99 wU18/20   5 0:29:41 0:13:34
107   47 433 Pfuhl, Tina DIS AG 84 W20-64   38 0:29:45 0:13:38
108 61   199 Hilger, Rainer OSC L√∂bau 45 M70 2   0:29:55 0:13:48
109   48 163 K√ľster, Nathalia Friedersdorf 3 wU16   4 0:30:12 0:14:05
110 62   328 Thomschke, Ralf SG Oberl. Handball 64 M20-64 39   0:30:21 0:14:14
111   49 183 Wehner, Conny Laufen verbindet 70 W20-64   39 0:30:30 0:14:23
112   50 494 St√ľlpner, Natalie   80 W20-64   40 0:30:46 0:14:39
113   51 304 Br√ľckner, Josephine G√∂rlitz 87 W20-64   41 0:31:00 0:14:53
114   52 150 Nippe, Hannelore Die Senftenberger Laufgemeinschaft 52 W65   2 0:31:02 0:14:55
115   53 192 M√∂bius-R√∂hr, Veronika LSV Pirna 57 W20-64   42 0:31:05 0:14:58
116   54 466 Pudollek, Lissy USV Erfurt 97 W20-64   43 0:31:07 0:15:00
117 63   467 Pudollek, Roland SV Lok Kamenz 59 M20-64 40   0:31:11 0:15:04
118 64   346 Sch√ľtze, Dieter Pirna 40 M75 4   0:31:23 0:15:16
119 65   196 Grote, Oliver Luckauer L√§uferbund 6 mU16 13   0:31:25 0:15:18
120   55 195 Sabev, Corinna LT Rheinhessen-Pfalz 96 W20-64   44 0:31:27 0:15:20
121   56 176 Kunath, Manuela HSV 1923 Pulsnitz - LA 64 W20-64   45 0:31:31 0:15:24
122   57 185 Gruhlke, Sandra Lauffreunde Zescha 75 W20-64   46 0:31:44 0:15:37
123   58 143 B√∂hm, Sabine Binelinchens Abenteuer 73 W20-64   47 0:31:45 0:15:38
123 66   184 Gruhlke, Peter Lauffreunde Zescha 43 M70 3   0:31:45 0:15:38
125   59 178 P√∂hland, Constanze HSV 1923 Pulsnitz 79 W20-64   48 0:31:52 0:15:45
126   60 333 Stange, Jasmin BCO Ottendorf-Okrilla 6 wU16   5 0:32:15 0:16:08
127   61 332 Stange, Ines Sportfreunde Ottendorf-Okrilla 73 W20-64   49 0:32:17 0:16:10
128   62 154 Hoch, Sylke Dresden 72 W20-64   50 0:32:19 0:16:12
129   63 165 Mager, Jennifer Friedersdorf 90 W20-64   51 0:32:20 0:16:13
130 67   200 Schindler, Hartmut OSC L√∂bau 45 M70 4   0:32:24 0:16:17
131   64 158 Kaiser, Viola ESV Lok Bad Schandau 59 W20-64   52 0:32:27 0:16:20
132   65 360 Michler, Antje Fitne√ü 93 Putzkau 64 W20-64   53 0:32:32 0:16:25
133   66 217 Schmidt, Cornelia Strandb√§rchies 85 W20-64   54 0:32:41 0:16:34
134   67 146 Jurowiec, Manuela Citylauf-Verein Dresden 73 W20-64   55 0:33:11 0:17:04
135 68   201 Zosel, Hans OSC L√∂bau 39 M75 5   0:33:13 0:17:06
136   68 228 Berger, Lydia Wasserwacht Kamenz 99 wU18/20   6 0:33:52 0:17:45
137   69 169 Haupt, Julia H&H Racing Kroppen 88 W20-64   56 0:34:39 0:18:32
138   70 215 Schirmer, Konstanze Spremberg 68 W20-64   57 0:39:59 0:23:52
(c) 1990-2012 Blue Wonder Sport Promotion - Andreas Burow - Zeitnahme & Auswertung - www.Triathlon-Service.de